Weather at Progar Airstrip

Public forecast

Using degrees Celsius for public forecast. Weather courtesy of forecast.io.

Closest aviation weather report (METAR) to Progar Airstrip

Closest report is Belgrade Nikola Tesla Airport, 8.1 nm (15.0 km) NE.

2024/05/25 05:00 (retrieved 14 minutes ago)

LYBE 250500Z 15003KT CAVOK 15/14 Q1018 NOSIG

Closest aviation forecast (TAF) to Progar Airstrip

Forecast is more than 6 hours old.

Closest forecast is Kukës International Airport, 161.6 nm (299.3 km) S.

2024/05/24 18:00 Ammendment (retrieved 11 hours ago)

TAF AMD LAKU 241900Z 2418/2518 CNL